Francisco C. Ada Saipan International Airport
PGSN : now visible

Airfield :











YOU CAN JOIN US ON...

 
LOGIN :

Register | Disclaimer

   EN    FR    IT 

 









Legend :    VFR   Marginal VFR   IFR   Intensive IFR   Very Intensive IFR
Visi :
Ceiling :
>= 8 km
>= 3000ft
5 to 8 km
1000 to 3000 ft
1500m to 5 km
500 to 1000 ft
800 to 1500m
200 to 500 ft
< 800m
< 200 ft
Symbols :   Thunderstorms  Fog  Heavy snow  Heavy precipitations  Wind > 20 kt






- Airport Elevation : 215 ft
- IATA code : SPN


PGSN - Francisco C. Ada Saipan International

CURRENT METAR :
  • 272054Z 06009KT 10SM CLR 25/21 A2993 RMK AO2 SLP156 T02500206 53011

EXPIRED METARs :
  • 271954Z 06009KT 10SM CLR 24/21 A2991 RMK AO2 SLP149 T02440206
  • 271854Z 08008KT 10SM FEW021 25/21 A2990 RMK AO2 SLP146 T02500206
  • 271754Z 08006KT 10SM SCT019 25/21 A2990 RMK AO2 SLP145 T02500211 10261 20244 56013

TAF PGSN
Valid from the 27 at 18:00 until the 28 at 18:00 UTC


271737Z 2718/2818 07008KT P6SM FEW025 SCT050
FM280000 06010G16KT P6SM FEW018 SCT040



MET'MAP, your aeronautical weather chart ! - Copyright ORBIFLY December 2007 - Disclaimer

ORBIFLY MET'MAP TEAM :

Programming & Development : Alexandra Zaïnal
Concept & original design : Baudouin d'Aumeries
Assistance for programming : Marc-Olivier Méhu
Technical & hardware support : Manuel Goepfert

Contact : metmap@orbifly.com




SOURCES & CREDITS :

   NOAA       Earth
Advisory